Altheimer, AR

1:45 AM CDT on November 01, 2014 (GMT -0500)
Cornerstone Farms | Change Station
CLOSE
Current Station
Personal Weather Station
Location: Altheimer, AR
Elevation: 203 ft
Nearby Weather Stations
Active Advisory: Freeze Watch

Elev 203 ft 34.24 °N, 91.76 °W | Updated 35 seconds ago

Clear
Clear
40.9 °F
Feels Like 41 °F
N
2.0
Wind Variable Wind from NNW
Gusts 6.0 mph

Today
High -- | Low -- °F
--% Chance of Precip.
Yesterday
High -- | Low -- °F
Precip. -- in
7:27 AM 6:14 PM
Waxing Gibbous, 63% visible
Pressure 30.37 in
Visibility 10.0 miles
Clouds Clear
Windchill 41 °F
Dew Point 30 °F
Humidity 65%
Rainfall 0.00 in
Snow Depth Not available.
UV 0 out of 12
Pollen 4.50 out of 12
Air Quality Not available.
Flu Activity Not available.
METAR KPBF 010553Z AUTO 01008KT 10SM CLR 05/M04 A3037 RMK AO2 SLP283 T00501039 10128 20050 401780050 51005

More Conditions Fewer Conditions

Pressure 30.37 in
Visibility 10.0 miles
Clouds Clear
Windchill 41 °F
Dew Point 30 °F
Humidity 65%
Rainfall 0.00 in
Snow Depth Not available.
UV 0 out of 12
Pollen 4.50 out of 12
Air Quality Not available.
Flu Activity Not available.
METAR KPBF 010553Z AUTO 01008KT 10SM CLR 05/M04 A3037 RMK AO2 SLP283 T00501039 10128 20050 401780050 51005

More Conditions Fewer Conditions

10-Day Weather Forecast

Almanac

Astronomy

Nov. 01, 2014 Rise Set
Actual Time
Civil Twilight
Nautical Twilight
Astronomical Twilight
Moon
Length of Visible Light
Length of Day
Tomorrow will be .
, % of the Moon is Illuminated

Today's Extremes

State Highs State Lows

Community

WunderPhotos

Upload Photos

1,766,865 photos uploaded!

WunderBlogs® & News

Nearby

Air Quality

  Air Quality AQ Index Pollutant
Not available.

Snow Depth

Station Depth Elevation

Earthquake Activity

City Distance Mag. Time & Date
Minimum magnitude displayed is 2.5.

Coastal Water Temperatures

Place Temperature

Nearby Weather Stations